Millville, Minnesota
Current Conditions -  °F | °C
As of 2:14 PM on Sunday 23 Nov 2014 (Local Time) from K9MN Reporting Station
Overcast Overcast  
Wind Chill: 47°   Ceiling: 300
Heat Index: 49°   Visibility: 1.2mi
Dew Point: 49°   Wind: 5mph
Humidity: 98%   Direction: 160°SSE
Pressure: 29.36"   Gusts: NA
Location:  44.24°N, 92.3°W
Report Text: K9MN 232014Z AUTO 16004KT 1 1/4SM OVC003 10/09 A2936 RMK AO1 T00950092
Loading
Personal Weather Stations






























Interactive Weather Map New forecast layout! Learn more

10-Day Weather Forecast

Advertisements
Track Severe Weather on mobile